sensor_id;sensor_type;location;lat;lon;timestamp;P1;durP1;ratioP1;P2;durP2;ratioP2
1344;SDS011;15375;48.540;9.268;2023-03-20T00:01:48;3.30;;;3.07;;
1344;SDS011;15375;48.540;9.268;2023-03-20T00:04:13;3.10;;;2.83;;
1344;SDS011;15375;48.540;9.268;2023-03-20T00:06:39;3.50;;;3.20;;
1344;SDS011;15375;48.540;9.268;2023-03-20T00:09:04;2.73;;;2.53;;
1344;SDS011;15375;48.540;9.268;2023-03-20T00:11:34;3.37;;;3.07;;
1344;SDS011;15375;48.540;9.268;2023-03-20T00:14:05;3.17;;;2.57;;
1344;SDS011;15375;48.540;9.268;2023-03-20T00:16:34;3.07;;;2.77;;
1344;SDS011;15375;48.540;9.268;2023-03-20T00:19:01;3.07;;;2.70;;
1344;SDS011;15375;48.540;9.268;2023-03-20T00:21:27;4.07;;;2.40;;
1344;SDS011;15375;48.540;9.268;2023-03-20T00:23:53;2.97;;;2.70;;
1344;SDS011;15375;48.540;9.268;2023-03-20T00:26:18;4.57;;;2.87;;
1344;SDS011;15375;48.540;9.268;2023-03-20T00:28:48;3.40;;;2.60;;
1344;SDS011;15375;48.540;9.268;2023-03-20T00:33:43;2.97;;;2.07;;
1344;SDS011;15375;48.540;9.268;2023-03-20T00:36:09;2.30;;;2.10;;
1344;SDS011;15375;48.540;9.268;2023-03-20T00:38:35;2.40;;;2.20;;
1344;SDS011;15375;48.540;9.268;2023-03-20T00:41:00;2.50;;;1.87;;
1344;SDS011;15375;48.540;9.268;2023-03-20T00:43:26;2.90;;;1.93;;
1344;SDS011;15375;48.540;9.268;2023-03-20T00:45:51;1.90;;;1.80;;
1344;SDS011;15375;48.540;9.268;2023-03-20T00:48:17;2.77;;;1.83;;
1344;SDS011;15375;48.540;9.268;2023-03-20T00:50:42;1.50;;;1.30;;
1344;SDS011;15375;48.540;9.268;2023-03-20T00:53:09;1.47;;;1.30;;
1344;SDS011;15375;48.540;9.268;2023-03-20T00:55:35;1.40;;;1.30;;
1344;SDS011;15375;48.540;9.268;2023-03-20T00:58:03;2.23;;;1.57;;
1344;SDS011;15375;48.540;9.268;2023-03-20T01:00:39;1.87;;;1.73;;
1344;SDS011;15375;48.540;9.268;2023-03-20T01:03:10;2.50;;;1.30;;
1344;SDS011;15375;48.540;9.268;2023-03-20T01:05:38;2.00;;;1.70;;
1344;SDS011;15375;48.540;9.268;2023-03-20T01:08:08;2.00;;;1.80;;
1344;SDS011;15375;48.540;9.268;2023-03-20T01:10:36;1.90;;;1.20;;
1344;SDS011;15375;48.540;9.268;2023-03-20T01:13:01;1.33;;;1.23;;
1344;SDS011;15375;48.540;9.268;2023-03-20T01:15:29;2.07;;;1.20;;
1344;SDS011;15375;48.540;9.268;2023-03-20T01:17:57;1.87;;;1.20;;
1344;SDS011;15375;48.540;9.268;2023-03-20T01:20:23;1.20;;;1.10;;
1344;SDS011;15375;48.540;9.268;2023-03-20T01:22:52;1.60;;;1.20;;
1344;SDS011;15375;48.540;9.268;2023-03-20T01:25:18;1.73;;;1.23;;
1344;SDS011;15375;48.540;9.268;2023-03-20T01:27:49;2.40;;;1.60;;
1344;SDS011;15375;48.540;9.268;2023-03-20T01:30:18;0.90;;;0.90;;
1344;SDS011;15375;48.540;9.268;2023-03-20T01:32:46;1.10;;;1.00;;
1344;SDS011;15375;48.540;9.268;2023-03-20T01:35:13;1.47;;;1.17;;
1344;SDS011;15375;48.540;9.268;2023-03-20T01:37:40;1.23;;;1.10;;
1344;SDS011;15375;48.540;9.268;2023-03-20T01:40:12;1.23;;;1.23;;
1344;SDS011;15375;48.540;9.268;2023-03-20T01:42:56;1.13;;;0.97;;
1344;SDS011;15375;48.540;9.268;2023-03-20T01:45:23;1.07;;;1.07;;
1344;SDS011;15375;48.540;9.268;2023-03-20T01:47:54;1.60;;;1.10;;
1344;SDS011;15375;48.540;9.268;2023-03-20T01:50:23;1.57;;;1.47;;
1344;SDS011;15375;48.540;9.268;2023-03-20T01:55:31;1.50;;;1.40;;
1344;SDS011;15375;48.540;9.268;2023-03-20T01:57:57;1.53;;;1.00;;
1344;SDS011;15375;48.540;9.268;2023-03-20T02:00:27;1.20;;;1.10;;
1344;SDS011;15375;48.540;9.268;2023-03-20T02:02:52;2.37;;;1.67;;
1344;SDS011;15375;48.540;9.268;2023-03-20T02:05:19;1.40;;;1.30;;
1344;SDS011;15375;48.540;9.268;2023-03-20T02:07:48;1.67;;;1.53;;
1344;SDS011;15375;48.540;9.268;2023-03-20T02:10:20;1.20;;;1.10;;
1344;SDS011;15375;48.540;9.268;2023-03-20T02:12:46;1.03;;;0.90;;
1344;SDS011;15375;48.540;9.268;2023-03-20T02:15:12;1.50;;;1.30;;
1344;SDS011;15375;48.540;9.268;2023-03-20T02:17:40;1.30;;;1.20;;
1344;SDS011;15375;48.540;9.268;2023-03-20T02:45:33;1.20;;;1.10;;
1344;SDS011;15375;48.540;9.268;2023-03-20T02:48:12;1.23;;;1.10;;
1344;SDS011;15375;48.540;9.268;2023-03-20T02:50:50;1.53;;;1.43;;
1344;SDS011;15375;48.540;9.268;2023-03-20T02:56:11;1.00;;;1.00;;
1344;SDS011;15375;48.540;9.268;2023-03-20T02:59:21;1.30;;;1.20;;
1344;SDS011;15375;48.540;9.268;2023-03-20T03:02:15;1.43;;;1.07;;
1344;SDS011;15375;48.540;9.268;2023-03-20T03:04:49;4.10;;;1.30;;
1344;SDS011;15375;48.540;9.268;2023-03-20T03:07:18;1.27;;;1.17;;
1344;SDS011;15375;48.540;9.268;2023-03-20T03:09:49;1.50;;;1.40;;
1344;SDS011;15375;48.540;9.268;2023-03-20T03:12:18;1.90;;;1.33;;
1344;SDS011;15375;48.540;9.268;2023-03-20T03:14:47;1.67;;;1.03;;
1344;SDS011;15375;48.540;9.268;2023-03-20T03:17:17;0.77;;;0.77;;
1344;SDS011;15375;48.540;9.268;2023-03-20T03:19:46;1.83;;;1.37;;
1344;SDS011;15375;48.540;9.268;2023-03-20T03:22:15;1.13;;;1.00;;
1344;SDS011;15375;48.540;9.268;2023-03-20T03:24:42;1.30;;;0.80;;
1344;SDS011;15375;48.540;9.268;2023-03-20T03:32:48;1.10;;;0.90;;
1344;SDS011;15375;48.540;9.268;2023-03-20T03:35:21;1.13;;;0.80;;
1344;SDS011;15375;48.540;9.268;2023-03-20T03:43:20;1.33;;;0.90;;
1344;SDS011;15375;48.540;9.268;2023-03-20T03:45:56;0.70;;;0.70;;
1344;SDS011;15375;48.540;9.268;2023-03-20T03:48:35;0.80;;;0.77;;
1344;SDS011;15375;48.540;9.268;2023-03-20T03:51:09;1.67;;;0.97;;
1344;SDS011;15375;48.540;9.268;2023-03-20T03:53:40;0.90;;;0.80;;
1344;SDS011;15375;48.540;9.268;2023-03-20T03:56:13;1.57;;;0.80;;
1344;SDS011;15375;48.540;9.268;2023-03-20T03:58:44;1.80;;;0.90;;
1344;SDS011;15375;48.540;9.268;2023-03-20T04:01:17;0.70;;;0.70;;
1344;SDS011;15375;48.540;9.268;2023-03-20T04:03:46;0.70;;;0.70;;
1344;SDS011;15375;48.540;9.268;2023-03-20T04:06:14;0.83;;;0.83;;
1344;SDS011;15375;48.540;9.268;2023-03-20T04:08:42;1.03;;;0.93;;
1344;SDS011;15375;48.540;9.268;2023-03-20T04:11:14;0.90;;;0.90;;
1344;SDS011;15375;48.540;9.268;2023-03-20T04:13:42;0.87;;;0.87;;
1344;SDS011;15375;48.540;9.268;2023-03-20T04:16:11;0.80;;;0.80;;
1344;SDS011;15375;48.540;9.268;2023-03-20T04:18:38;1.10;;;1.00;;
1344;SDS011;15375;48.540;9.268;2023-03-20T04:21:04;2.83;;;1.07;;
1344;SDS011;15375;48.540;9.268;2023-03-20T04:23:30;1.20;;;0.83;;
1344;SDS011;15375;48.540;9.268;2023-03-20T04:25:56;0.70;;;0.70;;
1344;SDS011;15375;48.540;9.268;2023-03-20T04:28:21;1.27;;;1.17;;
1344;SDS011;15375;48.540;9.268;2023-03-20T04:30:53;1.90;;;0.97;;
1344;SDS011;15375;48.540;9.268;2023-03-20T04:33:19;0.80;;;0.80;;
1344;SDS011;15375;48.540;9.268;2023-03-20T04:35:45;1.03;;;0.90;;
1344;SDS011;15375;48.540;9.268;2023-03-20T04:38:10;1.50;;;0.87;;
1344;SDS011;15375;48.540;9.268;2023-03-20T04:40:35;0.80;;;0.80;;
1344;SDS011;15375;48.540;9.268;2023-03-20T04:43:01;1.50;;;1.00;;
1344;SDS011;15375;48.540;9.268;2023-03-20T04:45:26;2.07;;;1.40;;
1344;SDS011;15375;48.540;9.268;2023-03-20T04:47:52;1.53;;;1.43;;
1344;SDS011;15375;48.540;9.268;2023-03-20T04:50:17;1.17;;;1.07;;
1344;SDS011;15375;48.540;9.268;2023-03-20T04:52:42;1.53;;;1.43;;
1344;SDS011;15375;48.540;9.268;2023-03-20T04:55:08;1.97;;;1.17;;
1344;SDS011;15375;48.540;9.268;2023-03-20T04:57:33;1.47;;;1.10;;
1344;SDS011;15375;48.540;9.268;2023-03-20T04:59:58;1.17;;;1.07;;
1344;SDS011;15375;48.540;9.268;2023-03-20T05:02:24;1.10;;;1.03;;
1344;SDS011;15375;48.540;9.268;2023-03-20T05:04:50;1.40;;;1.30;;
1344;SDS011;15375;48.540;9.268;2023-03-20T05:07:15;4.13;;;1.67;;
1344;SDS011;15375;48.540;9.268;2023-03-20T05:09:41;1.20;;;1.10;;
1344;SDS011;15375;48.540;9.268;2023-03-20T05:12:07;1.23;;;1.13;;
1344;SDS011;15375;48.540;9.268;2023-03-20T05:14:33;1.57;;;1.33;;
1344;SDS011;15375;48.540;9.268;2023-03-20T05:16:58;1.93;;;1.47;;
1344;SDS011;15375;48.540;9.268;2023-03-20T05:19:23;3.80;;;1.57;;
1344;SDS011;15375;48.540;9.268;2023-03-20T05:21:49;4.23;;;2.13;;
1344;SDS011;15375;48.540;9.268;2023-03-20T05:24:15;5.20;;;1.40;;
1344;SDS011;15375;48.540;9.268;2023-03-20T05:26:40;1.50;;;1.10;;
1344;SDS011;15375;48.540;9.268;2023-03-20T05:29:06;1.20;;;1.10;;
1344;SDS011;15375;48.540;9.268;2023-03-20T05:31:31;1.43;;;1.33;;
1344;SDS011;15375;48.540;9.268;2023-03-20T05:33:56;3.23;;;1.60;;
1344;SDS011;15375;48.540;9.268;2023-03-20T05:36:23;1.50;;;1.40;;
1344;SDS011;15375;48.540;9.268;2023-03-20T05:38:49;1.50;;;1.40;;
1344;SDS011;15375;48.540;9.268;2023-03-20T05:41:14;4.03;;;1.20;;
1344;SDS011;15375;48.540;9.268;2023-03-20T05:43:39;1.43;;;1.33;;
1344;SDS011;15375;48.540;9.268;2023-03-20T05:46:05;1.30;;;1.20;;
1344;SDS011;15375;48.540;9.268;2023-03-20T05:48:30;1.30;;;1.20;;
1344;SDS011;15375;48.540;9.268;2023-03-20T05:50:56;1.30;;;1.20;;
1344;SDS011;15375;48.540;9.268;2023-03-20T05:53:21;1.53;;;1.40;;
1344;SDS011;15375;48.540;9.268;2023-03-20T05:55:46;1.40;;;1.30;;
1344;SDS011;15375;48.540;9.268;2023-03-20T05:58:12;1.30;;;1.20;;
1344;SDS011;15375;48.540;9.268;2023-03-20T06:00:37;1.03;;;0.90;;
1344;SDS011;15375;48.540;9.268;2023-03-20T06:03:03;5.37;;;1.20;;
1344;SDS011;15375;48.540;9.268;2023-03-20T06:05:31;1.40;;;1.30;;
1344;SDS011;15375;48.540;9.268;2023-03-20T06:07:57;1.13;;;1.00;;
1344;SDS011;15375;48.540;9.268;2023-03-20T06:10:22;2.03;;;1.47;;
1344;SDS011;15375;48.540;9.268;2023-03-20T06:12:47;1.83;;;1.40;;
1344;SDS011;15375;48.540;9.268;2023-03-20T06:15:14;1.60;;;1.40;;
1344;SDS011;15375;48.540;9.268;2023-03-20T06:17:39;2.40;;;1.00;;
1344;SDS011;15375;48.540;9.268;2023-03-20T06:20:05;2.40;;;1.60;;
1344;SDS011;15375;48.540;9.268;2023-03-20T06:22:31;1.73;;;1.50;;
1344;SDS011;15375;48.540;9.268;2023-03-20T06:24:56;2.00;;;1.70;;
1344;SDS011;15375;48.540;9.268;2023-03-20T06:27:22;1.40;;;1.30;;
1344;SDS011;15375;48.540;9.268;2023-03-20T06:29:47;1.30;;;1.20;;
1344;SDS011;15375;48.540;9.268;2023-03-20T06:32:13;1.30;;;1.20;;
1344;SDS011;15375;48.540;9.268;2023-03-20T06:34:39;1.50;;;1.30;;
1344;SDS011;15375;48.540;9.268;2023-03-20T06:37:05;1.50;;;1.17;;
1344;SDS011;15375;48.540;9.268;2023-03-20T06:39:30;1.20;;;1.10;;
1344;SDS011;15375;48.540;9.268;2023-03-20T06:41:56;1.33;;;1.10;;
1344;SDS011;15375;48.540;9.268;2023-03-20T06:44:21;1.20;;;1.10;;
1344;SDS011;15375;48.540;9.268;2023-03-20T06:46:46;1.07;;;1.00;;
1344;SDS011;15375;48.540;9.268;2023-03-20T06:49:12;1.80;;;1.07;;
1344;SDS011;15375;48.540;9.268;2023-03-20T06:51:37;1.17;;;1.10;;
1344;SDS011;15375;48.540;9.268;2023-03-20T06:54:03;1.20;;;1.10;;
1344;SDS011;15375;48.540;9.268;2023-03-20T06:56:29;2.23;;;1.20;;
1344;SDS011;15375;48.540;9.268;2023-03-20T06:58:55;1.43;;;1.27;;
1344;SDS011;15375;48.540;9.268;2023-03-20T07:01:20;1.50;;;1.40;;
1344;SDS011;15375;48.540;9.268;2023-03-20T07:03:45;1.37;;;1.27;;
1344;SDS011;15375;48.540;9.268;2023-03-20T07:06:11;0.87;;;0.80;;
1344;SDS011;15375;48.540;9.268;2023-03-20T07:08:37;1.20;;;1.10;;
1344;SDS011;15375;48.540;9.268;2023-03-20T07:11:03;0.80;;;0.80;;
1344;SDS011;15375;48.540;9.268;2023-03-20T07:13:30;3.00;;;1.17;;
1344;SDS011;15375;48.540;9.268;2023-03-20T07:15:56;0.90;;;0.90;;
1344;SDS011;15375;48.540;9.268;2023-03-20T07:18:25;1.00;;;0.90;;
1344;SDS011;15375;48.540;9.268;2023-03-20T07:20:52;1.57;;;1.00;;
1344;SDS011;15375;48.540;9.268;2023-03-20T07:23:18;1.60;;;1.13;;
1344;SDS011;15375;48.540;9.268;2023-03-20T07:25:43;1.67;;;1.10;;
1344;SDS011;15375;48.540;9.268;2023-03-20T07:28:09;0.90;;;0.90;;
1344;SDS011;15375;48.540;9.268;2023-03-20T07:30:35;0.90;;;0.77;;
1344;SDS011;15375;48.540;9.268;2023-03-20T07:33:00;0.73;;;0.73;;
1344;SDS011;15375;48.540;9.268;2023-03-20T07:35:26;1.60;;;0.87;;
1344;SDS011;15375;48.540;9.268;2023-03-20T07:37:51;1.17;;;1.07;;
1344;SDS011;15375;48.540;9.268;2023-03-20T07:40:17;4.10;;;1.07;;
1344;SDS011;15375;48.540;9.268;2023-03-20T07:42:43;0.73;;;0.70;;
1344;SDS011;15375;48.540;9.268;2023-03-20T07:45:09;5.47;;;1.13;;
1344;SDS011;15375;48.540;9.268;2023-03-20T07:47:35;1.67;;;1.37;;
1344;SDS011;15375;48.540;9.268;2023-03-20T07:50:01;0.80;;;0.80;;
1344;SDS011;15375;48.540;9.268;2023-03-20T07:52:27;1.00;;;0.90;;
1344;SDS011;15375;48.540;9.268;2023-03-20T07:54:52;0.87;;;0.70;;
1344;SDS011;15375;48.540;9.268;2023-03-20T07:57:17;1.13;;;1.00;;
1344;SDS011;15375;48.540;9.268;2023-03-20T07:59:43;1.07;;;0.97;;
1344;SDS011;15375;48.540;9.268;2023-03-20T08:02:12;1.80;;;1.00;;
1344;SDS011;15375;48.540;9.268;2023-03-20T08:04:39;0.97;;;0.97;;
1344;SDS011;15375;48.540;9.268;2023-03-20T08:07:05;1.17;;;0.93;;
1344;SDS011;15375;48.540;9.268;2023-03-20T08:09:30;0.90;;;0.80;;
1344;SDS011;15375;48.540;9.268;2023-03-20T08:11:56;1.80;;;0.97;;
1344;SDS011;15375;48.540;9.268;2023-03-20T08:14:21;1.40;;;1.00;;
1344;SDS011;15375;48.540;9.268;2023-03-20T08:16:46;1.50;;;1.30;;
1344;SDS011;15375;48.540;9.268;2023-03-20T08:19:12;1.20;;;1.00;;
1344;SDS011;15375;48.540;9.268;2023-03-20T08:21:37;1.30;;;1.20;;
1344;SDS011;15375;48.540;9.268;2023-03-20T08:24:02;2.73;;;1.27;;
1344;SDS011;15375;48.540;9.268;2023-03-20T08:26:28;2.20;;;1.10;;
1344;SDS011;15375;48.540;9.268;2023-03-20T08:28:53;1.30;;;1.00;;
1344;SDS011;15375;48.540;9.268;2023-03-20T08:31:19;1.40;;;1.30;;
1344;SDS011;15375;48.540;9.268;2023-03-20T08:33:44;2.27;;;1.20;;
1344;SDS011;15375;48.540;9.268;2023-03-20T08:36:10;1.40;;;1.30;;
1344;SDS011;15375;48.540;9.268;2023-03-20T08:38:36;2.20;;;1.47;;
1344;SDS011;15375;48.540;9.268;2023-03-20T08:41:02;1.40;;;1.30;;
1344;SDS011;15375;48.540;9.268;2023-03-20T08:43:27;1.60;;;1.50;;
1344;SDS011;15375;48.540;9.268;2023-03-20T08:45:53;1.50;;;1.30;;
1344;SDS011;15375;48.540;9.268;2023-03-20T08:48:19;3.00;;;2.80;;
1344;SDS011;15375;48.540;9.268;2023-03-20T08:50:45;2.07;;;1.40;;
1344;SDS011;15375;48.540;9.268;2023-03-20T08:53:11;1.70;;;1.40;;
1344;SDS011;15375;48.540;9.268;2023-03-20T08:55:36;1.90;;;1.80;;
1344;SDS011;15375;48.540;9.268;2023-03-20T08:58:02;2.00;;;1.57;;
1344;SDS011;15375;48.540;9.268;2023-03-20T09:00:27;1.63;;;1.53;;
1344;SDS011;15375;48.540;9.268;2023-03-20T09:02:53;1.47;;;1.37;;
1344;SDS011;15375;48.540;9.268;2023-03-20T09:05:18;1.33;;;1.00;;
1344;SDS011;15375;48.540;9.268;2023-03-20T09:07:44;1.20;;;1.10;;
1344;SDS011;15375;48.540;9.268;2023-03-20T09:10:10;1.10;;;1.00;;
1344;SDS011;15375;48.540;9.268;2023-03-20T09:12:36;1.60;;;1.23;;
1344;SDS011;15375;48.540;9.268;2023-03-20T09:15:02;2.80;;;1.30;;
1344;SDS011;15375;48.540;9.268;2023-03-20T09:17:28;2.20;;;1.37;;
1344;SDS011;15375;48.540;9.268;2023-03-20T09:19:55;1.20;;;1.10;;
1344;SDS011;15375;48.540;9.268;2023-03-20T09:22:20;1.20;;;1.10;;
1344;SDS011;15375;48.540;9.268;2023-03-20T09:24:46;2.10;;;1.17;;
1344;SDS011;15375;48.540;9.268;2023-03-20T09:27:11;1.10;;;1.10;;
1344;SDS011;15375;48.540;9.268;2023-03-20T09:29:40;1.97;;;1.00;;
1344;SDS011;15375;48.540;9.268;2023-03-20T09:32:08;1.07;;;0.97;;
1344;SDS011;15375;48.540;9.268;2023-03-20T09:34:36;2.53;;;1.23;;
1344;SDS011;15375;48.540;9.268;2023-03-20T09:37:01;2.97;;;1.53;;
1344;SDS011;15375;48.540;9.268;2023-03-20T09:39:27;2.50;;;1.20;;
1344;SDS011;15375;48.540;9.268;2023-03-20T09:41:52;1.00;;;0.80;;
1344;SDS011;15375;48.540;9.268;2023-03-20T09:52:03;1.13;;;1.00;;
1344;SDS011;15375;48.540;9.268;2023-03-20T09:54:41;0.70;;;0.70;;
1344;SDS011;15375;48.540;9.268;2023-03-20T09:57:28;0.73;;;0.73;;
1344;SDS011;15375;48.540;9.268;2023-03-20T10:00:00;0.80;;;0.80;;
1344;SDS011;15375;48.540;9.268;2023-03-20T10:02:37;1.03;;;0.80;;
1344;SDS011;15375;48.540;9.268;2023-03-20T10:08:25;1.50;;;1.27;;
1344;SDS011;15375;48.540;9.268;2023-03-20T10:21:47;0.70;;;0.60;;
1344;SDS011;15375;48.540;9.268;2023-03-20T10:24:21;0.80;;;0.67;;
1344;SDS011;15375;48.540;9.268;2023-03-20T10:26:52;1.27;;;0.90;;
1344;SDS011;15375;48.540;9.268;2023-03-20T10:32:07;1.77;;;1.20;;
1344;SDS011;15375;48.540;9.268;2023-03-20T10:40:24;1.90;;;1.47;;
1344;SDS011;15375;48.540;9.268;2023-03-20T10:43:01;1.80;;;1.40;;
1344;SDS011;15375;48.540;9.268;2023-03-20T10:45:34;0.87;;;0.80;;
1344;SDS011;15375;48.540;9.268;2023-03-20T10:48:15;1.80;;;1.00;;
1344;SDS011;15375;48.540;9.268;2023-03-20T10:50:51;2.07;;;1.57;;
1344;SDS011;15375;48.540;9.268;2023-03-20T10:53:22;1.03;;;0.93;;
1344;SDS011;15375;48.540;9.268;2023-03-20T10:55:55;1.17;;;0.90;;
1344;SDS011;15375;48.540;9.268;2023-03-20T10:58:26;1.17;;;1.00;;
1344;SDS011;15375;48.540;9.268;2023-03-20T11:00:54;1.10;;;0.80;;
1344;SDS011;15375;48.540;9.268;2023-03-20T11:03:22;1.50;;;1.20;;
1344;SDS011;15375;48.540;9.268;2023-03-20T11:05:59;1.47;;;0.90;;
1344;SDS011;15375;48.540;9.268;2023-03-20T11:08:35;1.17;;;1.07;;
1344;SDS011;15375;48.540;9.268;2023-03-20T11:11:03;0.67;;;0.63;;
1344;SDS011;15375;48.540;9.268;2023-03-20T11:13:30;1.10;;;0.90;;
1344;SDS011;15375;48.540;9.268;2023-03-20T11:16:09;1.20;;;1.10;;
1344;SDS011;15375;48.540;9.268;2023-03-20T11:18:40;0.80;;;0.80;;
1344;SDS011;15375;48.540;9.268;2023-03-20T11:21:07;1.30;;;0.93;;
1344;SDS011;15375;48.540;9.268;2023-03-20T11:23:45;1.00;;;0.77;;
1344;SDS011;15375;48.540;9.268;2023-03-20T11:26:45;1.30;;;1.17;;
1344;SDS011;15375;48.540;9.268;2023-03-20T11:29:05;1.00;;;0.80;;
1344;SDS011;15375;48.540;9.268;2023-03-20T11:31:36;1.77;;;0.80;;
1344;SDS011;15375;48.540;9.268;2023-03-20T11:36:39;1.13;;;0.60;;
1344;SDS011;15375;48.540;9.268;2023-03-20T11:39:12;0.90;;;0.80;;
1344;SDS011;15375;48.540;9.268;2023-03-20T11:41:49;0.67;;;0.67;;
1344;SDS011;15375;48.540;9.268;2023-03-20T11:46:59;0.93;;;0.83;;
1344;SDS011;15375;48.540;9.268;2023-03-20T11:49:27;2.27;;;0.80;;
1344;SDS011;15375;48.540;9.268;2023-03-20T11:52:16;1.33;;;1.07;;
1344;SDS011;15375;48.540;9.268;2023-03-20T11:54:48;1.73;;;0.80;;
1344;SDS011;15375;48.540;9.268;2023-03-20T11:57:29;1.33;;;0.93;;
1344;SDS011;15375;48.540;9.268;2023-03-20T12:00:21;1.23;;;0.77;;
1344;SDS011;15375;48.540;9.268;2023-03-20T12:02:49;0.90;;;0.90;;
1344;SDS011;15375;48.540;9.268;2023-03-20T12:05:33;1.53;;;1.10;;
1344;SDS011;15375;48.540;9.268;2023-03-20T12:10:43;1.30;;;1.00;;
1344;SDS011;15375;48.540;9.268;2023-03-20T12:13:32;0.97;;;0.87;;
1344;SDS011;15375;48.540;9.268;2023-03-20T12:16:04;1.40;;;0.70;;
1344;SDS011;15375;48.540;9.268;2023-03-20T12:18:36;1.17;;;0.77;;
1344;SDS011;15375;48.540;9.268;2023-03-20T12:27:20;1.10;;;1.00;;
1344;SDS011;15375;48.540;9.268;2023-03-20T12:29:39;3.60;;;1.10;;
1344;SDS011;15375;48.540;9.268;2023-03-20T12:32:15;0.73;;;0.67;;
1344;SDS011;15375;48.540;9.268;2023-03-20T12:34:49;1.43;;;1.30;;
1344;SDS011;15375;48.540;9.268;2023-03-20T12:37:18;1.67;;;1.57;;
1344;SDS011;15375;48.540;9.268;2023-03-20T12:39:49;2.93;;;2.30;;
1344;SDS011;15375;48.540;9.268;2023-03-20T12:45:12;5.03;;;3.70;;
1344;SDS011;15375;48.540;9.268;2023-03-20T12:47:46;1.40;;;1.30;;
1344;SDS011;15375;48.540;9.268;2023-03-20T12:55:40;1.20;;;0.90;;
1344;SDS011;15375;48.540;9.268;2023-03-20T13:06:55;1.57;;;1.30;;
1344;SDS011;15375;48.540;9.268;2023-03-20T13:15:17;1.10;;;0.90;;
1344;SDS011;15375;48.540;9.268;2023-03-20T13:17:55;1.40;;;1.30;;
1344;SDS011;15375;48.540;9.268;2023-03-20T13:20:32;1.97;;;1.30;;
1344;SDS011;15375;48.540;9.268;2023-03-20T13:39:09;1.83;;;1.20;;
1344;SDS011;15375;48.540;9.268;2023-03-20T13:41:39;1.80;;;1.40;;
1344;SDS011;15375;48.540;9.268;2023-03-20T13:44:07;1.80;;;1.40;;
1344;SDS011;15375;48.540;9.268;2023-03-20T13:46:39;1.30;;;1.20;;
1344;SDS011;15375;48.540;9.268;2023-03-20T13:49:19;1.90;;;0.90;;
1344;SDS011;15375;48.540;9.268;2023-03-20T13:51:53;2.03;;;1.20;;
1344;SDS011;15375;48.540;9.268;2023-03-20T13:54:34;1.23;;;1.13;;
1344;SDS011;15375;48.540;9.268;2023-03-20T13:59:57;1.20;;;1.10;;
1344;SDS011;15375;48.540;9.268;2023-03-20T14:02:26;1.20;;;1.10;;
1344;SDS011;15375;48.540;9.268;2023-03-20T14:05:00;1.10;;;0.90;;
1344;SDS011;15375;48.540;9.268;2023-03-20T14:07:44;1.30;;;1.20;;
1344;SDS011;15375;48.540;9.268;2023-03-20T14:12:52;1.20;;;1.13;;
1344;SDS011;15375;48.540;9.268;2023-03-20T14:15:20;4.17;;;1.40;;
1344;SDS011;15375;48.540;9.268;2023-03-20T14:17:47;1.17;;;1.07;;
1344;SDS011;15375;48.540;9.268;2023-03-20T14:20:34;2.27;;;1.40;;
1344;SDS011;15375;48.540;9.268;2023-03-20T14:23:02;1.10;;;1.00;;
1344;SDS011;15375;48.540;9.268;2023-03-20T14:25:32;1.20;;;1.10;;
1344;SDS011;15375;48.540;9.268;2023-03-20T14:28:06;1.17;;;1.13;;
1344;SDS011;15375;48.540;9.268;2023-03-20T14:30:42;1.50;;;1.03;;
1344;SDS011;15375;48.540;9.268;2023-03-20T14:35:49;1.53;;;1.00;;
1344;SDS011;15375;48.540;9.268;2023-03-20T14:38:26;2.50;;;1.20;;
1344;SDS011;15375;48.540;9.268;2023-03-20T14:48:55;2.10;;;1.17;;
1344;SDS011;15375;48.540;9.268;2023-03-20T14:56:46;1.73;;;1.60;;
1344;SDS011;15375;48.540;9.268;2023-03-20T14:59:15;1.20;;;1.10;;
1344;SDS011;15375;48.540;9.268;2023-03-20T15:06:42;1.23;;;1.20;;
1344;SDS011;15375;48.540;9.268;2023-03-20T15:09:11;1.43;;;1.33;;
1344;SDS011;15375;48.540;9.268;2023-03-20T15:11:37;1.30;;;1.20;;
1344;SDS011;15375;48.540;9.268;2023-03-20T15:14:06;1.17;;;0.90;;
1344;SDS011;15375;48.540;9.268;2023-03-20T15:16:34;0.87;;;0.87;;
1344;SDS011;15375;48.540;9.268;2023-03-20T15:19:03;1.03;;;1.00;;
1344;SDS011;15375;48.540;9.268;2023-03-20T15:21:39;1.40;;;1.10;;
1344;SDS011;15375;48.540;9.268;2023-03-20T15:24:05;1.20;;;1.10;;
1344;SDS011;15375;48.540;9.268;2023-03-20T15:26:32;1.13;;;1.03;;
1344;SDS011;15375;48.540;9.268;2023-03-20T15:29:00;1.23;;;1.13;;
1344;SDS011;15375;48.540;9.268;2023-03-20T15:31:31;1.40;;;1.30;;
1344;SDS011;15375;48.540;9.268;2023-03-20T15:33:59;1.73;;;0.90;;
1344;SDS011;15375;48.540;9.268;2023-03-20T15:36:28;2.33;;;1.40;;
1344;SDS011;15375;48.540;9.268;2023-03-20T15:44:26;1.10;;;1.00;;
1344;SDS011;15375;48.540;9.268;2023-03-20T15:47:01;1.37;;;0.90;;
1344;SDS011;15375;48.540;9.268;2023-03-20T15:49:48;1.20;;;1.10;;
1344;SDS011;15375;48.540;9.268;2023-03-20T15:52:23;2.07;;;1.07;;
1344;SDS011;15375;48.540;9.268;2023-03-20T15:54:50;1.67;;;0.93;;
1344;SDS011;15375;48.540;9.268;2023-03-20T15:57:20;1.60;;;1.13;;
1344;SDS011;15375;48.540;9.268;2023-03-20T15:59:50;1.60;;;1.40;;
1344;SDS011;15375;48.540;9.268;2023-03-20T16:02:16;1.30;;;1.20;;
1344;SDS011;15375;48.540;9.268;2023-03-20T16:04:45;1.53;;;1.43;;
1344;SDS011;15375;48.540;9.268;2023-03-20T16:07:25;1.20;;;1.10;;
1344;SDS011;15375;48.540;9.268;2023-03-20T16:09:52;2.00;;;1.30;;
1344;SDS011;15375;48.540;9.268;2023-03-20T16:12:18;1.33;;;1.00;;
1344;SDS011;15375;48.540;9.268;2023-03-20T16:14:45;2.80;;;1.77;;
1344;SDS011;15375;48.540;9.268;2023-03-20T16:17:11;1.33;;;1.20;;
1344;SDS011;15375;48.540;9.268;2023-03-20T16:19:38;1.33;;;1.10;;
1344;SDS011;15375;48.540;9.268;2023-03-20T16:22:10;1.20;;;1.10;;
1344;SDS011;15375;48.540;9.268;2023-03-20T16:24:37;11.40;;;1.60;;
1344;SDS011;15375;48.540;9.268;2023-03-20T16:27:07;1.90;;;1.40;;
1344;SDS011;15375;48.540;9.268;2023-03-20T16:29:34;2.40;;;2.20;;
1344;SDS011;15375;48.540;9.268;2023-03-20T16:32:02;3.60;;;2.00;;
1344;SDS011;15375;48.540;9.268;2023-03-20T16:34:34;5.43;;;3.63;;
1344;SDS011;15375;48.540;9.268;2023-03-20T16:37:05;5.27;;;4.27;;
1344;SDS011;15375;48.540;9.268;2023-03-20T16:39:44;1.93;;;1.50;;
1344;SDS011;15375;48.540;9.268;2023-03-20T16:42:14;1.43;;;1.40;;
1344;SDS011;15375;48.540;9.268;2023-03-20T16:44:51;2.87;;;2.60;;
1344;SDS011;15375;48.540;9.268;2023-03-20T16:47:22;1.90;;;1.80;;
1344;SDS011;15375;48.540;9.268;2023-03-20T16:52:47;4.23;;;1.80;;
1344;SDS011;15375;48.540;9.268;2023-03-20T16:55:29;1.80;;;1.50;;
1344;SDS011;15375;48.540;9.268;2023-03-20T16:57:59;2.17;;;1.93;;
1344;SDS011;15375;48.540;9.268;2023-03-20T17:00:41;12.00;;;7.90;;
1344;SDS011;15375;48.540;9.268;2023-03-20T17:03:15;3.97;;;3.47;;
1344;SDS011;15375;48.540;9.268;2023-03-20T17:05:51;4.10;;;1.80;;
1344;SDS011;15375;48.540;9.268;2023-03-20T17:08:30;2.13;;;1.83;;
1344;SDS011;15375;48.540;9.268;2023-03-20T17:11:02;3.50;;;1.60;;
1344;SDS011;15375;48.540;9.268;2023-03-20T17:13:29;1.60;;;1.50;;
1344;SDS011;15375;48.540;9.268;2023-03-20T17:15:55;3.43;;;2.27;;
1344;SDS011;15375;48.540;9.268;2023-03-20T17:18:20;3.57;;;2.10;;
1344;SDS011;15375;48.540;9.268;2023-03-20T17:20:46;1.70;;;1.60;;
1344;SDS011;15375;48.540;9.268;2023-03-20T17:23:12;1.70;;;1.60;;
1344;SDS011;15375;48.540;9.268;2023-03-20T17:25:41;4.17;;;3.80;;
1344;SDS011;15375;48.540;9.268;2023-03-20T17:28:10;3.73;;;2.70;;
1344;SDS011;15375;48.540;9.268;2023-03-20T17:30:43;5.67;;;2.47;;
1344;SDS011;15375;48.540;9.268;2023-03-20T17:33:13;5.73;;;4.23;;
1344;SDS011;15375;48.540;9.268;2023-03-20T17:35:40;5.07;;;3.90;;
1344;SDS011;15375;48.540;9.268;2023-03-20T17:38:07;6.33;;;5.07;;
1344;SDS011;15375;48.540;9.268;2023-03-20T17:40:38;9.13;;;5.13;;
1344;SDS011;15375;48.540;9.268;2023-03-20T17:43:04;8.73;;;6.70;;
1344;SDS011;15375;48.540;9.268;2023-03-20T17:45:34;4.70;;;3.80;;
1344;SDS011;15375;48.540;9.268;2023-03-20T17:48:03;2.90;;;2.50;;
1344;SDS011;15375;48.540;9.268;2023-03-20T17:50:29;2.00;;;1.80;;
1344;SDS011;15375;48.540;9.268;2023-03-20T17:52:54;2.07;;;1.87;;
1344;SDS011;15375;48.540;9.268;2023-03-20T17:55:20;2.53;;;1.87;;